KLOR/LOR METAR and TAF weather

Enter ICAO airport designator
Station Type Date Time Source
KLOR METAR 2021/09/20 05:38 UTC NOAA

KLOR 200538Z AUTO 00000KT 10SM BKN007 OVC016 23/23 A2999 RMK AO2 CIG 007V016 BKN V SCT SLP137


Station Type Date Time Source
KLOR Decoded METAR 2021/09/20 05:38 UTC NOAA

Fort Rucker, Lowe Army Heliport, AL, United States (KLOR) 31-21-32N 085-44-54W 93M
Sep 20, 2021 - 01:38 AM EDT / 2021.09.20 0538 UTC
Wind: Calm:0
Visibility: 10 mile(s):0
Sky conditions: overcast
Temperature: 73 F (23 C)
Dew Point: 73 F (23 C)
Relative Humidity: 100%
Pressure (altimeter): 29.99 in. Hg (1015 hPa)
ob: KLOR 200538Z AUTO 00000KT 10SM BKN007 OVC016 23/23 A2999 RMK AO2 CIG 007V016 BKN V SCT SLP137
cycle: 5

Station Type Date Time Source
KLOR TAF UTC NOAA

Error!

Example: see airport list